Wetterstation Vordersexau
Wetterdaten: Woche 15.08.11 - 21.08.11 (KW33)
Datum Zeit Temp. A. Feuchte A. Luftdruck Regen Wind Richtung Taupunkt Windchill Windben
15.08.2011 00:00 16,9 C 83 % 1010,4 hPa 0,0 l/m 0,0 km/h NO 14,0 C 16,9 C 0,0 km/h
15.08.2011 01:00 17,1 C 83 % 1010,4 hPa 0,0 l/m 0,0 km/h SO 14,2 C 17,1 C 0,0 km/h
15.08.2011 02:00 17,2 C 82 % 1010,6 hPa 0,0 l/m 0,0 km/h SO 14,1 C 17,2 C 0,0 km/h
15.08.2011 03:00 17,4 C 81 % 1010,4 hPa 0,0 l/m 0,0 km/h S 14,1 C 17,4 C 0,0 km/h
15.08.2011 04:00 17,5 C 80 % 1010,3 hPa 0,0 l/m 6,5 km/h S 14,0 C 17,5 C 3,6 km/h
15.08.2011 05:00 17,9 C 83 % 1010,2 hPa 0,0 l/m 0,0 km/h N-NO 15,0 C 17,9 C 0,0 km/h
15.08.2011 06:00 17,6 C 82 % 1010,6 hPa 0,0 l/m 0,0 km/h W-NW 14,5 C 17,6 C 0,0 km/h
15.08.2011 07:00 17,6 C 80 % 1011,0 hPa 0,0 l/m 1,9 km/h NO 14,1 C 17,6 C 1,1 km/h
15.08.2011 08:00 17,4 C 81 % 1011,7 hPa 0,0 l/m 0,0 km/h N-NO 14,1 C 17,4 C 0,0 km/h
15.08.2011 09:00 17,9 C 85 % 1012,3 hPa 0,0 l/m 0,0 km/h W-NW 15,3 C 17,9 C 0,0 km/h
15.08.2011 10:00 18,3 C 85 % 1012,7 hPa 0,0 l/m 0,0 km/h N-NO 15,7 C 18,3 C 0,0 km/h
15.08.2011 11:00 20,1 C 82 % 1013,4 hPa 0,0 l/m 0,0 km/h N-NO 16,9 C 20,1 C 0,0 km/h
15.08.2011 12:00 22,7 C 74 % 1014,0 hPa 0,0 l/m 0,0 km/h N-NW 17,8 C 22,7 C 0,0 km/h
15.08.2011 13:00 27,5 C 59 % 1014,0 hPa 0,0 l/m 0,0 km/h W 18,8 C 27,5 C 0,0 km/h
15.08.2011 14:00 27,2 C 58 % 1014,1 hPa 0,0 l/m 0,0 km/h N-NW 18,2 C 27,2 C 0,0 km/h
15.08.2011 15:00 29,4 C 53 % 1014,1 hPa 0,0 l/m 2,6 km/h NW 18,8 C 29,4 C 1,4 km/h
15.08.2011 16:00 24,2 C 64 % 1014,9 hPa 0,0 l/m 20,1 km/h NW 16,9 C 21,6 C 11,2 km/h
15.08.2011 17:00 28,7 C 54 % 1015,0 hPa 0,0 l/m 5,2 km/h N-NO 18,5 C 28,7 C 2,9 km/h
15.08.2011 18:00 27,9 C 52 % 1015,2 hPa 0,0 l/m 3,9 km/h NO 17,1 C 27,9 C 2,2 km/h
15.08.2011 19:00 23,6 C 61 % 1015,7 hPa 0,0 l/m 0,0 km/h N-NO 15,6 C 23,6 C 0,0 km/h
15.08.2011 20:00 20,4 C 73 % 1016,3 hPa 0,0 l/m 0,0 km/h N-NO 15,4 C 20,4 C 0,0 km/h
15.08.2011 21:00 19,3 C 77 % 1017,0 hPa 0,0 l/m 0,0 km/h N-NW 15,2 C 19,3 C 0,0 km/h
15.08.2011 22:00 17,9 C 83 % 1017,3 hPa 0,0 l/m 0,0 km/h N 15,0 C 17,9 C 0,0 km/h
15.08.2011 23:00 17,5 C 84 % 1017,8 hPa 0,0 l/m 0,0 km/h N 14,8 C 17,5 C 0,0 km/h
16.08.2011 00:00 17,4 C 84 % 1017,8 hPa 0,0 l/m 0,0 km/h N 14,7 C 17,4 C 0,0 km/h
16.08.2011 01:00 16,8 C 84 % 1017,8 hPa 0,0 l/m 0,0 km/h O-SO 14,1 C 16,8 C 0,0 km/h
16.08.2011 02:00 15,4 C 84 % 1017,4 hPa 0,0 l/m 0,0 km/h SO 12,7 C 15,4 C 0,0 km/h
16.08.2011 03:00 14,6 C 84 % 1017,4 hPa 0,0 l/m 3,2 km/h O-SO 11,9 C 14,6 C 1,8 km/h
16.08.2011 04:00 13,8 C 83 % 1017,0 hPa 0,0 l/m 0,0 km/h NO 11,0 C 13,8 C 0,0 km/h
16.08.2011 05:00 13,3 C 82 % 1016,9 hPa 0,0 l/m 0,0 km/h SO 10,3 C 13,3 C 0,0 km/h
16.08.2011 06:00 12,8 C 82 % 1016,8 hPa 0,0 l/m 2,6 km/h NO 9,8 C 12,8 C 1,4 km/h
16.08.2011 07:00 13,5 C 81 % 1017,0 hPa 0,0 l/m 0,0 km/h S-SO 10,3 C 13,5 C 0,0 km/h
16.08.2011 08:00 16,7 C 82 % 1017,1 hPa 0,0 l/m 0,0 km/h SO 13,6 C 16,7 C 0,0 km/h
16.08.2011 09:00 19,2 C 81 % 1017,3 hPa 0,0 l/m 0,0 km/h S-SO 15,9 C 19,2 C 0,0 km/h
16.08.2011 10:00 22,2 C 72 % 1017,3 hPa 0,0 l/m 0,0 km/h W 16,9 C 22,2 C 0,0 km/h
16.08.2011 11:00 25,2 C 60 % 1017,5 hPa 0,0 l/m 3,2 km/h W-NW 16,9 C 25,2 C 1,8 km/h
16.08.2011 12:00 27,2 C 53 % 1017,2 hPa 0,0 l/m 1,9 km/h NW 16,8 C 27,2 C 1,1 km/h
16.08.2011 13:00 27,2 C 55 % 1017,1 hPa 0,0 l/m 3,9 km/h W-NW 17,4 C 27,2 C 2,2 km/h
16.08.2011 14:00 28,2 C 53 % 1016,8 hPa 0,0 l/m 0,0 km/h W 17,7 C 28,2 C 0,0 km/h
16.08.2011 15:00 30,1 C 48 % 1016,3 hPa 0,0 l/m 3,2 km/h W 17,9 C 30,1 C 1,8 km/h
16.08.2011 16:00 32,9 C 39 % 1016,0 hPa 0,0 l/m 0,0 km/h W-SW 17,1 C 32,9 C 0,0 km/h
16.08.2011 17:00 34,7 C 37 % 1015,9 hPa 0,0 l/m 0,0 km/h NO 17,8 C 34,7 C 0,0 km/h
16.08.2011 18:00 32,3 C 37 % 1015,7 hPa 0,0 l/m 0,0 km/h N 15,7 C 32,3 C 0,0 km/h
16.08.2011 19:00 29,4 C 40 % 1015,8 hPa 0,0 l/m 0,0 km/h O-SO 14,4 C 29,4 C 0,0 km/h
16.08.2011 20:00 21,4 C 65 % 1016,1 hPa 0,0 l/m 0,0 km/h NO 14,5 C 21,4 C 0,0 km/h
16.08.2011 21:00 17,9 C 75 % 1016,6 hPa 0,0 l/m 0,0 km/h O 13,4 C 17,9 C 0,0 km/h
16.08.2011 22:00 16,8 C 79 % 1016,7 hPa 0,0 l/m 0,0 km/h SO 13,1 C 16,8 C 0,0 km/h
16.08.2011 23:00 15,5 C 83 % 1016,6 hPa 0,0 l/m 0,0 km/h SO 12,6 C 15,5 C 0,0 km/h
17.08.2011 00:00 15,4 C 84 % 1016,7 hPa 0,0 l/m 1,3 km/h NO 12,7 C 15,4 C 0,7 km/h
17.08.2011 01:00 14,7 C 84 % 1016,7 hPa 0,0 l/m 0,0 km/h S-SO 12,0 C 14,7 C 0,0 km/h
17.08.2011 02:00 14,3 C 84 % 1016,3 hPa 0,0 l/m 0,0 km/h O-NO 11,6 C 14,3 C 0,0 km/h
17.08.2011 03:00 13,4 C 85 % 1016,2 hPa 0,0 l/m 0,0 km/h O-NO 10,9 C 13,4 C 0,0 km/h
17.08.2011 04:00 12,5 C 85 % 1016,0 hPa 0,0 l/m 0,0 km/h NO 10,0 C 12,5 C 0,0 km/h
17.08.2011 05:00 12,1 C 84 % 1015,5 hPa 0,0 l/m 0,0 km/h NO 9,5 C 12,1 C 0,0 km/h
17.08.2011 06:00 12,2 C 84 % 1015,1 hPa 0,0 l/m 0,0 km/h O 9,6 C 12,2 C 0,0 km/h
17.08.2011 07:00 12,9 C 83 % 1015,0 hPa 0,0 l/m 0,0 km/h W-NW 10,1 C 12,9 C 0,0 km/h
17.08.2011 08:00 20,4 C 79 % 1015,2 hPa 0,0 l/m 0,0 km/h W-SW 16,6 C 20,4 C 0,0 km/h
17.08.2011 09:00 25,3 C 62 % 1015,2 hPa 0,0 l/m 0,0 km/h W-SW 17,5 C 25,3 C 0,0 km/h
17.08.2011 10:00 28,1 C 52 % 1014,9 hPa 0,0 l/m 0,0 km/h W-SW 17,3 C 28,1 C 0,0 km/h
17.08.2011 11:00 28,1 C 53 % 1014,6 hPa 0,0 l/m 0,0 km/h W 17,6 C 28,1 C 0,0 km/h
17.08.2011 12:00 29,1 C 54 % 1014,3 hPa 0,0 l/m 5,8 km/h W-SW 18,8 C 29,1 C 3,2 km/h
17.08.2011 13:00 29,5 C 53 % 1014,0 hPa 0,0 l/m 0,0 km/h W 18,9 C 29,5 C 0,0 km/h
17.08.2011 14:00 30,1 C 51 % 1013,4 hPa 0,0 l/m 0,6 km/h NW 18,8 C 30,1 C 0,4 km/h
17.08.2011 15:00 33,6 C 44 % 1013,0 hPa 0,0 l/m 7,1 km/h N-NW 19,6 C 33,6 C 4,0 km/h
17.08.2011 16:00 36,3 C 38 % 1012,6 hPa 0,0 l/m 0,0 km/h NW 19,7 C 36,3 C 0,0 km/h
17.08.2011 17:00 34,9 C 40 % 1012,4 hPa 0,0 l/m 0,0 km/h W 19,3 C 34,9 C 0,0 km/h
17.08.2011 18:00 29,6 C 53 % 1012,3 hPa 0,0 l/m 0,0 km/h W 19,0 C 29,6 C 0,0 km/h
17.08.2011 19:00 26,3 C 63 % 1012,4 hPa 0,0 l/m 0,0 km/h W-SW 18,7 C 26,3 C 0,0 km/h
17.08.2011 20:00 22,1 C 76 % 1012,5 hPa 0,0 l/m 0,0 km/h W-SW 17,7 C 22,1 C 0,0 km/h
17.08.2011 21:00 20,5 C 81 % 1012,9 hPa 0,0 l/m 0,0 km/h N-NO 17,1 C 20,5 C 0,0 km/h
17.08.2011 22:00 20,4 C 81 % 1012,3 hPa 0,0 l/m 0,0 km/h N-NO 17,0 C 20,4 C 0,0 km/h
17.08.2011 23:00 19,9 C 82 % 1012,6 hPa 0,0 l/m 0,0 km/h NO 16,7 C 19,9 C 0,0 km/h
18.08.2011 00:00 19,2 C 83 % 1012,6 hPa 0,0 l/m 0,0 km/h NO 16,2 C 19,2 C 0,0 km/h
18.08.2011 01:00 17,9 C 84 % 1012,0 hPa 0,0 l/m 0,0 km/h S-SO 15,2 C 17,9 C 0,0 km/h
18.08.2011 02:00 17,3 C 84 % 1012,4 hPa 0,0 l/m 0,0 km/h SO 14,6 C 17,3 C 0,0 km/h
18.08.2011 03:00 17,6 C 84 % 1012,6 hPa 0,0 l/m 0,0 km/h SO 14,9 C 17,6 C 0,0 km/h
18.08.2011 04:00 17,6 C 84 % 1012,7 hPa 0,0 l/m 0,0 km/h SO 14,9 C 17,6 C 0,0 km/h
18.08.2011 05:00 17,9 C 85 % 1012,4 hPa 0,0 l/m 0,0 km/h SO 15,3 C 17,9 C 0,0 km/h
18.08.2011 06:00 17,3 C 84 % 1012,9 hPa 0,0 l/m 1,9 km/h NO 14,6 C 17,3 C 1,1 km/h
18.08.2011 07:00 17,8 C 83 % 1012,8 hPa 0,0 l/m 0,0 km/h SO 14,9 C 17,8 C 0,0 km/h
18.08.2011 08:00 19,4 C 84 % 1012,5 hPa 0,0 l/m 0,0 km/h SO 16,6 C 19,4 C 0,0 km/h
18.08.2011 09:00 27,4 C 66 % 1013,6 hPa 0,0 l/m 1,3 km/h S 20,5 C 27,4 C 0,7 km/h
18.08.2011 10:00 31,8 C 49 % 1014,2 hPa 0,0 l/m 1,9 km/h W 19,7 C 31,8 C 1,1 km/h
18.08.2011 11:00 31,4 C 48 % 1014,2 hPa 0,0 l/m 0,0 km/h SO 19,0 C 31,4 C 0,0 km/h
18.08.2011 12:00 27,8 C 57 % 1013,0 hPa 0,0 l/m 11,0 km/h SW 18,5 C 27,1 C 6,1 km/h
18.08.2011 13:00 33,3 C 47 % 1012,7 hPa 0,0 l/m 0,0 km/h W 20,4 C 33,3 C 0,0 km/h
18.08.2011 14:00 32,1 C 47 % 1012,7 hPa 0,0 l/m 21,4 km/h W-SW 19,3 C 31,8 C 11,9 km/h
18.08.2011 15:00 35,2 C 41 % 1012,4 hPa 0,0 l/m 0,0 km/h S 19,9 C 35,2 C 0,0 km/h
18.08.2011 16:00 40,8 C 32 % 1011,7 hPa 0,0 l/m 0,0 km/h SW 20,8 C 40,8 C 0,0 km/h
18.08.2011 17:00 37,3 C 36 % 1011,5 hPa 0,0 l/m 0,0 km/h W 19,7 C 37,3 C 0,0 km/h
18.08.2011 18:00 37,9 C 35 % 1011,0 hPa 0,0 l/m 0,6 km/h S-SO 19,7 C 37,9 C 0,4 km/h
18.08.2011 19:00 29,0 C 54 % 1010,6 hPa 0,0 l/m 0,0 km/h O-NO 18,7 C 29,0 C 0,0 km/h
18.08.2011 20:00 25,1 C 66 % 1010,7 hPa 0,0 l/m 0,0 km/h SO 18,3 C 25,1 C 0,0 km/h
18.08.2011 21:00 22,3 C 73 % 1011,7 hPa 0,0 l/m 0,0 km/h SO 17,2 C 22,3 C 0,0 km/h
18.08.2011 22:00 21,3 C 76 % 1012,5 hPa 0,0 l/m 0,0 km/h SO 16,9 C 21,3 C 0,0 km/h
18.08.2011 23:00 20,6 C 78 % 1012,5 hPa 0,0 l/m 0,0 km/h SO 16,6 C 20,6 C 0,0 km/h
19.08.2011 00:00 19,9 C 81 % 1012,9 hPa 0,0 l/m 0,0 km/h SO 16,5 C 19,9 C 0,0 km/h
19.08.2011 01:00 23,8 C 66 % 1012,7 hPa 0,0 l/m 9,1 km/h W-SW 17,1 C 23,1 C 5,0 km/h
19.08.2011 02:00 24,4 C 61 % 1013,2 hPa 0,0 l/m 1,9 km/h W-SW 16,4 C 24,4 C 1,1 km/h
19.08.2011 03:00 23,8 C 67 % 1013,6 hPa 0,0 l/m 5,2 km/h S 17,3 C 23,8 C 2,9 km/h
19.08.2011 04:00 19,2 C 83 % 1014,6 hPa 0,0 l/m 1,3 km/h SO 16,2 C 19,2 C 0,7 km/h
19.08.2011 05:00 19,1 C 83 % 1014,4 hPa 0,0 l/m 5,8 km/h W 16,1 C 19,1 C 3,2 km/h
19.08.2011 06:00 19,1 C 84 % 1014,5 hPa 0,0 l/m 1,3 km/h NO 16,3 C 19,1 C 0,7 km/h
19.08.2011 07:00 18,8 C 83 % 1015,3 hPa 0,0 l/m 0,0 km/h O-NO 15,8 C 18,8 C 0,0 km/h
19.08.2011 08:00 22,9 C 84 % 1015,8 hPa 0,0 l/m 0,0 km/h SW 20,0 C 22,9 C 0,0 km/h
19.08.2011 09:00 28,4 C 62 % 1016,2 hPa 0,0 l/m 18,8 km/h SW 20,4 C 27,1 C 10,4 km/h
19.08.2011 10:00 27,6 C 64 % 1016,4 hPa 0,0 l/m 11,7 km/h W 20,2 C 26,8 C 6,5 km/h
19.08.2011 11:00 29,1 C 59 % 1016,6 hPa 0,0 l/m 22,7 km/h S-SW 20,2 C 27,8 C 12,6 km/h
19.08.2011 12:00 28,9 C 60 % 1016,8 hPa 0,0 l/m 25,9 km/h W 20,3 C 27,4 C 14,4 km/h
19.08.2011 13:00 29,6 C 58 % 1016,7 hPa 0,0 l/m 32,4 km/h S-SW 20,4 C 28,1 C 18,0 km/h
19.08.2011 14:00 30,4 C 56 % 1016,8 hPa 0,0 l/m 18,1 km/h W 20,6 C 29,7 C 10,1 km/h
19.08.2011 15:00 27,8 C 58 % 1016,9 hPa 0,0 l/m 24,0 km/h W 18,8 C 26,0 C 13,3 km/h
19.08.2011 16:00 30,8 C 53 % 1017,1 hPa 0,0 l/m 0,6 km/h W-SW 20,1 C 30,8 C 0,4 km/h
19.08.2011 17:00 28,9 C 54 % 1017,2 hPa 0,0 l/m 24,6 km/h W-NW 18,6 C 27,5 C 13,7 km/h
19.08.2011 18:00 27,3 C 60 % 1017,2 hPa 0,0 l/m 4,5 km/h NW 18,8 C 27,3 C 2,5 km/h
19.08.2011 19:00 28,9 C 57 % 1017,3 hPa 0,0 l/m 0,0 km/h N-NO 19,5 C 28,9 C 0,0 km/h
19.08.2011 20:00 24,2 C 64 % 1017,4 hPa 0,0 l/m 0,0 km/h N-NO 16,9 C 24,2 C 0,0 km/h
19.08.2011 21:00 22,3 C 73 % 1018,1 hPa 0,0 l/m 0,0 km/h N-NO 17,2 C 22,3 C 0,0 km/h
19.08.2011 22:00 21,6 C 78 % 1018,3 hPa 0,0 l/m 0,0 km/h N-NO 17,6 C 21,6 C 0,0 km/h
19.08.2011 23:00 20,9 C 78 % 1018,6 hPa 0,0 l/m 16,2 km/h O-SO 16,9 C 18,1 C 9,0 km/h
20.08.2011 00:00 19,5 C 80 % 1018,7 hPa 0,0 l/m 0,0 km/h O-NO 16,0 C 19,5 C 0,0 km/h
20.08.2011 01:00 18,7 C 83 % 1018,8 hPa 0,0 l/m 0,0 km/h SO 15,8 C 18,7 C 0,0 km/h
20.08.2011 02:00 18,3 C 83 % 1018,7 hPa 0,0 l/m 0,0 km/h O-SO 15,4 C 18,3 C 0,0 km/h
20.08.2011 03:00 17,4 C 84 % 1018,8 hPa 0,0 l/m 0,0 km/h N-NO 14,7 C 17,4 C 0,0 km/h
20.08.2011 04:00 17,1 C 84 % 1019,1 hPa 0,0 l/m 0,0 km/h N-NO 14,4 C 17,1 C 0,0 km/h
20.08.2011 05:00 15,8 C 84 % 1019,0 hPa 0,0 l/m 0,0 km/h N-NO 13,1 C 15,8 C 0,0 km/h
20.08.2011 06:00 15,8 C 84 % 1019,0 hPa 0,0 l/m 0,0 km/h N-NO 13,1 C 15,8 C 0,0 km/h
20.08.2011 07:00 16,3 C 83 % 1019,4 hPa 0,0 l/m 0,0 km/h NW 13,4 C 16,3 C 0,0 km/h
20.08.2011 08:00 18,9 C 84 % 1019,7 hPa 0,0 l/m 0,0 km/h W 16,1 C 18,9 C 0,0 km/h
20.08.2011 09:00 24,6 C 72 % 1019,7 hPa 0,0 l/m 0,0 km/h W-NW 19,2 C 24,6 C 0,0 km/h
20.08.2011 10:00 26,6 C 63 % 1019,8 hPa 0,0 l/m 6,5 km/h NW 19,0 C 26,6 C 3,6 km/h
20.08.2011 11:00 27,2 C 60 % 1020,0 hPa 0,0 l/m 5,8 km/h W-NW 18,7 C 27,2 C 3,2 km/h
20.08.2011 12:00 28,4 C 62 % 1019,8 hPa 0,0 l/m 7,1 km/h W-NW 20,4 C 28,3 C 4,0 km/h
20.08.2011 13:00 29,9 C 58 % 1019,3 hPa 0,0 l/m 4,5 km/h W-NW 20,7 C 29,9 C 2,5 km/h
20.08.2011 14:00 31,1 C 54 % 1018,9 hPa 0,0 l/m 2,6 km/h NW 20,7 C 31,1 C 1,4 km/h
20.08.2011 15:00 33,9 C 47 % 1018,3 hPa 0,0 l/m 0,0 km/h W 21,0 C 33,9 C 0,0 km/h
20.08.2011 16:00 36,9 C 41 % 1018,0 hPa 0,0 l/m 4,5 km/h W 21,4 C 36,9 C 2,5 km/h
20.08.2011 17:00 37,9 C 38 % 1017,8 hPa 0,0 l/m 7,1 km/h W-NW 21,1 C 37,9 C 4,0 km/h
20.08.2011 18:00 36,3 C 40 % 1017,5 hPa 0,0 l/m 0,0 km/h W 20,5 C 36,3 C 0,0 km/h
20.08.2011 19:00 32,3 C 48 % 1017,3 hPa 0,0 l/m 0,0 km/h W 19,9 C 32,3 C 0,0 km/h
20.08.2011 20:00 24,4 C 70 % 1017,5 hPa 0,0 l/m 0,0 km/h O-SO 18,6 C 24,4 C 0,0 km/h
20.08.2011 21:00 21,5 C 79 % 1018,0 hPa 0,0 l/m 0,0 km/h SO 17,7 C 21,5 C 0,0 km/h
20.08.2011 22:00 20,3 C 82 % 1017,7 hPa 0,0 l/m 0,0 km/h SO 17,1 C 20,3 C 0,0 km/h
20.08.2011 23:00 19,2 C 84 % 1017,6 hPa 0,0 l/m 0,0 km/h SO 16,4 C 19,2 C 0,0 km/h
21.08.2011 00:00 18,6 C 84 % 1017,2 hPa 0,0 l/m 0,0 km/h SO 15,8 C 18,6 C 0,0 km/h
21.08.2011 01:00 18,2 C 84 % 1017,0 hPa 0,0 l/m 0,0 km/h SO 15,4 C 18,2 C 0,0 km/h
21.08.2011 02:00 17,9 C 84 % 1016,7 hPa 0,0 l/m 0,0 km/h SO 15,2 C 17,9 C 0,0 km/h
21.08.2011 03:00 17,1 C 84 % 1016,6 hPa 0,0 l/m 0,0 km/h O-NO 14,4 C 17,1 C 0,0 km/h
21.08.2011 04:00 17,4 C 83 % 1016,3 hPa 0,0 l/m 0,0 km/h O-NO 14,5 C 17,4 C 0,0 km/h
21.08.2011 05:00 16,8 C 83 % 1016,2 hPa 0,0 l/m 0,0 km/h SO 13,9 C 16,8 C 0,0 km/h
21.08.2011 06:00 16,6 C 82 % 1016,5 hPa 0,0 l/m 0,0 km/h O 13,5 C 16,6 C 0,0 km/h
21.08.2011 07:00 17,8 C 84 % 1015,5 hPa 0,0 l/m 0,0 km/h N 15,1 C 17,8 C 0,0 km/h
21.08.2011 08:00 20,9 C 82 % 1016,2 hPa 0,0 l/m 0,0 km/h SO 17,7 C 20,9 C 0,0 km/h
21.08.2011 09:00 27,2 C 63 % 1016,3 hPa 0,0 l/m 0,0 km/h NW 19,5 C 27,2 C 0,0 km/h
21.08.2011 10:00 31,6 C 55 % 1017,1 hPa 0,0 l/m 0,0 km/h NO 21,4 C 31,6 C 0,0 km/h
21.08.2011 11:00 33,0 C 49 % 1017,4 hPa 0,0 l/m 0,0 km/h O-NO 20,8 C 33,0 C 0,0 km/h
21.08.2011 12:00 32,5 C 49 % 1018,6 hPa 0,0 l/m 0,0 km/h SO 20,4 C 32,5 C 0,0 km/h
21.08.2011 13:00 35,1 C 46 % 1017,0 hPa 0,0 l/m 3,2 km/h W-NW 21,7 C 35,1 C 1,8 km/h
21.08.2011 14:00 30,3 C 54 % 1016,3 hPa 0,0 l/m 0,0 km/h S-SW 19,9 C 30,3 C 0,0 km/h
21.08.2011 15:00 33,1 C 50 % 1016,1 hPa 0,0 l/m 5,2 km/h S-SO 21,2 C 33,1 C 2,9 km/h
21.08.2011 16:00 37,2 C 41 % 1015,7 hPa 0,0 l/m 0,0 km/h SW 21,7 C 37,2 C 0,0 km/h
21.08.2011 17:00 38,4 C 39 % 1015,5 hPa 0,0 l/m 0,0 km/h W 21,9 C 38,4 C 0,0 km/h
21.08.2011 18:00 34,3 C 49 % 1015,5 hPa 0,0 l/m 0,0 km/h SW 22,0 C 34,3 C 0,0 km/h
21.08.2011 19:00 30,2 C 62 % 1015,3 hPa 0,0 l/m 0,0 km/h SO 22,1 C 30,2 C 0,0 km/h
21.08.2011 20:00 26,3 C 72 % 1015,4 hPa 0,0 l/m 0,0 km/h SO 20,8 C 26,3 C 0,0 km/h
21.08.2011 21:00 25,0 C 74 % 1015,6 hPa 0,0 l/m 0,0 km/h S-SO 20,0 C 25,0 C 0,0 km/h
21.08.2011 22:00 22,9 C 79 % 1015,6 hPa 0,0 l/m 1,3 km/h NO 19,1 C 22,9 C 0,7 km/h
21.08.2011 23:00 22,1 C 80 % 1015,9 hPa 0,0 l/m 0,0 km/h S-SO 18,5 C 22,1 C 0,0 km/h
Min-Datum _ 17.08.11 18.08.11 15.08.11 - 15.08.11 - 17.08.11 17.08.11 15.08.11
_ Min-Zeit 05:30 16:30 05:30 - 00:30 - 05:30 05:30 00:30
Minimum _ 12,1 C 32 % 1010,2 hPa - 0,0 km/h - 9,5 C 12,1 C 0,0 km/h
Max-Datum _ 18.08.11 15.08.11 20.08.11 15.08.11 19.08.11 - 21.08.11 18.08.11 19.08.11
_ Max-Zeit 16:30 09:30 11:30 00:30 13:30 - 19:30 16:30 13:30
Maximum _ 40,8 C 85 % 1020,0 hPa 0,0 l/m 32,4 km/h
S-SW
- 22,1 C 40,8 C 18,0 km/h
S-SW
Durchschnitt _ 23,7 C 68 % 1015,4 hPa #0,0 l/m 2,3 km/h SO 16,9 C 23,6 C 1,3 km/h
www.sexauwetter.de